createdAt,value
2018-08-03T00:00:37.260Z,10.20
2018-08-03T00:03:35.267Z,10.23
2018-08-03T00:06:33.072Z,9.73
2018-08-03T00:09:31.166Z,9.80
2018-08-03T00:12:29.144Z,9.73
2018-08-03T00:15:18.140Z,10.80
2018-08-03T00:18:15.254Z,10.03
2018-08-03T00:21:13.296Z,9.77
2018-08-03T00:24:11.341Z,9.27
2018-08-03T00:27:08.659Z,10.20
2018-08-03T00:30:05.795Z,9.37
2018-08-03T00:33:02.997Z,10.13
2018-08-03T00:36:01.011Z,10.30
2018-08-03T00:38:58.195Z,10.40
2018-08-03T00:41:56.194Z,10.87
2018-08-03T00:44:53.248Z,10.03
2018-08-03T00:47:51.223Z,10.03
2018-08-03T00:50:48.257Z,11.47
2018-08-03T00:53:46.298Z,13.07
2018-08-03T00:56:43.552Z,10.97
2018-08-03T00:59:41.539Z,10.27
2018-08-03T01:02:38.694Z,10.50
2018-08-03T01:05:36.499Z,10.97
2018-08-03T01:08:34.440Z,11.17
2018-08-03T01:11:32.515Z,10.70
2018-08-03T01:14:30.160Z,11.63
2018-08-03T01:17:27.959Z,10.80
2018-08-03T01:20:25.903Z,11.13
2018-08-03T01:23:23.972Z,11.07
2018-08-03T01:26:22.161Z,10.63
2018-08-03T01:29:20.017Z,11.10
2018-08-03T01:32:17.184Z,11.70
2018-08-03T01:35:14.425Z,10.80
2018-08-03T01:38:11.692Z,10.50
2018-08-03T01:41:08.864Z,10.93
2018-08-03T01:44:06.896Z,11.33
2018-08-03T01:47:04.191Z,10.67
2018-08-03T01:50:02.356Z,11.03
2018-08-03T01:52:59.600Z,9.67
2018-08-03T01:55:56.727Z,11.03
2018-08-03T01:58:54.585Z,10.07
2018-08-03T02:01:51.535Z,10.43
2018-08-03T02:04:49.525Z,10.77
2018-08-03T02:07:46.965Z,12.43
2018-08-03T02:10:44.901Z,9.67
2018-08-03T02:13:42.885Z,10.53
2018-08-03T02:16:40.640Z,10.63
2018-08-03T02:19:38.611Z,10.90
2018-08-03T02:22:36.468Z,10.17
2018-08-03T02:25:34.563Z,11.47
2018-08-03T02:28:32.568Z,11.03
2018-08-03T02:31:30.508Z,10.47
2018-08-03T02:34:28.296Z,11.67
2018-08-03T02:37:26.335Z,11.60
2018-08-03T02:40:23.540Z,10.13
2018-08-03T02:43:20.628Z,11.40
2018-08-03T02:46:18.750Z,11.53
2018-08-03T02:49:16.900Z,10.80
2018-08-03T02:52:14.192Z,11.70
2018-08-03T02:55:12.151Z,10.97
2018-08-03T02:58:10.115Z,13.03
2018-08-03T03:01:07.633Z,10.63
2018-08-03T03:04:05.248Z,11.17
2018-08-03T03:07:02.365Z,11.00
2018-08-03T03:10:00.287Z,11.93
2018-08-03T03:12:57.505Z,11.67
2018-08-03T03:15:54.690Z,17.57
2018-08-03T03:18:52.752Z,11.80
2018-08-03T03:21:50.791Z,11.77
2018-08-03T03:24:48.828Z,11.00
2018-08-03T03:27:46.180Z,11.43
2018-08-03T03:30:43.537Z,13.50
2018-08-03T03:33:41.629Z,12.27
2018-08-03T03:36:38.567Z,11.40
2018-08-03T03:39:36.519Z,13.57
2018-08-03T03:42:34.356Z,11.33
2018-08-03T03:45:31.618Z,11.33
2018-08-03T03:48:28.538Z,11.23
2018-08-03T03:51:25.694Z,10.80
2018-08-03T03:54:22.795Z,11.50
2018-08-03T03:57:20.804Z,11.00
2018-08-03T04:00:19.700Z,12.37
2018-08-03T04:03:17.697Z,11.60
2018-08-03T04:06:14.536Z,11.17
2018-08-03T04:09:12.491Z,11.60
2018-08-03T04:12:09.574Z,12.53
2018-08-03T04:15:06.485Z,12.60
2018-08-03T04:18:03.543Z,14.23
2018-08-03T04:21:01.511Z,12.27
2018-08-03T04:23:58.962Z,10.67
2018-08-03T04:26:56.627Z,11.43
2018-08-03T04:29:53.819Z,10.67
2018-08-03T04:32:50.980Z,10.77
2018-08-03T04:35:48.329Z,11.40
2018-08-03T04:38:46.367Z,10.83
2018-08-03T04:41:43.662Z,10.37
2018-08-03T04:44:41.632Z,9.90
2018-08-03T04:47:38.851Z,11.00
2018-08-03T04:50:36.762Z,10.83
2018-08-03T04:53:34.868Z,10.13
2018-08-03T04:56:32.017Z,9.53
2018-08-03T04:59:29.963Z,9.70
2018-08-03T05:02:27.863Z,10.53
2018-08-03T05:05:25.091Z,9.77
2018-08-03T05:08:22.304Z,11.27
2018-08-03T05:11:19.355Z,10.73
2018-08-03T05:14:17.299Z,9.80
2018-08-03T05:17:14.332Z,11.20
2018-08-03T05:20:11.389Z,10.10
2018-08-03T05:23:08.499Z,8.80
2018-08-03T05:26:06.316Z,8.65
2018-08-03T05:29:04.420Z,9.35
2018-08-03T05:32:01.546Z,9.05
2018-08-03T05:34:59.022Z,10.63
2018-08-03T05:37:56.479Z,11.48
2018-08-03T05:40:53.717Z,13.85
2018-08-03T05:43:51.096Z,11.80
2018-08-03T05:46:49.055Z,12.93
2018-08-03T05:49:46.240Z,11.50
2018-08-03T05:52:44.009Z,11.50
2018-08-03T05:55:41.955Z,11.43
2018-08-03T05:58:39.848Z,11.88
2018-08-03T06:01:38.044Z,11.38
2018-08-03T06:04:35.269Z,10.88
2018-08-03T06:07:32.673Z,11.60
2018-08-03T06:10:30.563Z,13.03
2018-08-03T06:13:27.791Z,12.82
2018-08-03T06:16:25.027Z,13.40
2018-08-03T06:19:23.263Z,13.30
2018-08-03T06:22:21.353Z,13.38
2018-08-03T06:25:19.447Z,12.40
2018-08-03T06:28:16.522Z,13.10
2018-08-03T06:31:14.694Z,11.80
2018-08-03T06:34:12.713Z,11.78
2018-08-03T06:37:10.772Z,11.88
2018-08-03T06:40:08.724Z,11.40
2018-08-03T06:43:05.962Z,10.25
2018-08-03T06:46:04.101Z,12.10
2018-08-03T06:49:01.608Z,11.05
2018-08-03T06:51:58.815Z,10.53
2018-08-03T06:54:56.375Z,12.10
2018-08-03T06:57:53.337Z,11.45
2018-08-03T07:00:51.354Z,11.60
2018-08-03T07:03:48.636Z,9.85
2018-08-03T07:06:45.844Z,10.45
2018-08-03T07:09:43.237Z,11.38
2018-08-03T07:12:41.029Z,10.53
2018-08-03T07:15:38.892Z,9.70
2018-08-03T07:18:36.155Z,10.65
2018-08-03T07:21:38.563Z,10.82
2018-08-03T07:24:35.791Z,11.00
2018-08-03T07:27:33.795Z,10.35
2018-08-03T07:30:31.715Z,11.35
2018-08-03T07:33:29.638Z,11.22
2018-08-03T07:36:26.703Z,11.28
2018-08-03T07:39:23.903Z,9.53
2018-08-03T07:42:21.902Z,9.25
2018-08-03T07:45:19.811Z,8.90
2018-08-03T07:48:17.936Z,9.15
2018-08-03T07:51:16.118Z,8.20
2018-08-03T07:54:14.204Z,8.70
2018-08-03T07:57:11.343Z,9.25
2018-08-03T08:00:08.909Z,7.97
2018-08-03T08:03:06.391Z,8.33
2018-08-03T08:06:03.935Z,9.13
2018-08-03T08:09:02.024Z,8.18
2018-08-03T08:11:59.827Z,7.53
2018-08-03T08:14:57.452Z,7.87
2018-08-03T08:17:55.616Z,7.70
2018-08-03T08:20:52.728Z,8.05
2018-08-03T08:23:50.128Z,7.45
2018-08-03T08:26:48.272Z,8.40
2018-08-03T08:29:45.479Z,7.45
2018-08-03T08:32:43.123Z,7.30
2018-08-03T08:35:41.330Z,7.08
2018-08-03T08:38:39.425Z,7.65
2018-08-03T08:41:37.455Z,6.72
2018-08-03T08:44:35.406Z,6.90
2018-08-03T08:47:33.513Z,6.75
2018-08-03T08:50:31.460Z,7.58
2018-08-03T08:53:28.655Z,6.58
2018-08-03T08:56:25.814Z,5.80
2018-08-03T08:59:23.258Z,6.40
2018-08-03T09:02:21.399Z,7.05
2018-08-03T09:05:19.227Z,6.03
2018-08-03T09:08:16.089Z,5.83
2018-08-03T09:11:13.292Z,10.80
2018-08-03T09:14:10.786Z,6.55
2018-08-03T09:17:08.256Z,5.65
2018-08-03T09:20:06.127Z,5.83
2018-08-03T09:23:04.101Z,6.37
2018-08-03T09:26:01.459Z,4.97
2018-08-03T09:28:59.537Z,5.83
2018-08-03T09:31:57.712Z,5.47
2018-08-03T09:34:54.913Z,5.10
2018-08-03T09:37:52.947Z,4.50
2018-08-03T09:40:50.008Z,4.55
2018-08-03T09:43:48.081Z,4.67
2018-08-03T09:46:45.948Z,3.70
2018-08-03T09:49:43.707Z,5.80
2018-08-03T09:52:40.989Z,3.47
2018-08-03T09:55:39.044Z,5.35
2018-08-03T09:58:37.257Z,3.10
2018-08-03T10:01:35.338Z,4.72
2018-08-03T10:04:33.392Z,4.53
2018-08-03T10:07:30.531Z,3.98
2018-08-03T10:10:28.659Z,4.25
2018-08-03T10:13:25.871Z,5.60
2018-08-03T10:16:23.831Z,5.80
2018-08-03T10:19:22.059Z,7.67
2018-08-03T10:22:19.530Z,4.10
2018-08-03T10:25:17.129Z,4.30
2018-08-03T10:28:14.330Z,5.30
2018-08-03T10:31:12.280Z,4.90
2018-08-03T10:34:10.048Z,4.42
2018-08-03T10:37:07.742Z,4.37
2018-08-03T10:40:05.754Z,4.60
2018-08-03T10:43:03.153Z,5.17
2018-08-03T10:46:01.228Z,4.67
2018-08-03T10:48:59.060Z,3.98
2018-08-03T10:51:56.092Z,4.72
2018-08-03T10:54:54.148Z,9.75
2018-08-03T10:57:52.250Z,4.35
2018-08-03T11:00:51.338Z,4.15
2018-08-03T11:03:48.578Z,4.05
2018-08-03T11:06:45.871Z,4.35
2018-08-03T11:09:43.907Z,4.42
2018-08-03T11:12:42.005Z,4.42
2018-08-03T11:15:39.947Z,4.42
2018-08-03T11:18:38.035Z,4.33
2018-08-03T11:21:36.004Z,6.83
2018-08-03T11:24:33.154Z,4.62
2018-08-03T11:27:31.124Z,4.08
2018-08-03T11:30:30.230Z,3.75
2018-08-03T11:33:27.616Z,4.25
2018-08-03T11:36:24.775Z,4.00
2018-08-03T11:39:22.968Z,4.03
2018-08-03T11:42:20.616Z,3.75
2018-08-03T11:45:19.457Z,4.60
2018-08-03T11:48:17.444Z,3.67
2018-08-03T11:51:14.546Z,4.28
2018-08-03T11:54:12.614Z,5.50
2018-08-03T11:57:10.168Z,5.22
2018-08-03T12:00:07.841Z,4.20
2018-08-03T12:03:05.089Z,5.22
2018-08-03T12:06:03.094Z,4.42
2018-08-03T12:09:00.360Z,4.90
2018-08-03T12:11:57.679Z,4.83
2018-08-03T12:14:55.702Z,5.70
2018-08-03T12:17:53.549Z,4.83
2018-08-03T12:20:52.664Z,4.42
2018-08-03T12:23:50.825Z,3.87
2018-08-03T12:26:47.955Z,4.47
2018-08-03T12:29:45.228Z,7.17
2018-08-03T12:32:43.284Z,4.78
2018-08-03T12:35:41.215Z,4.28
2018-08-03T12:38:45.726Z,4.47
2018-08-03T12:41:43.380Z,6.12
2018-08-03T12:44:41.457Z,5.50
2018-08-03T12:47:38.532Z,4.45
2018-08-03T12:50:35.763Z,4.90
2018-08-03T12:53:33.232Z,5.08
2018-08-03T12:56:31.004Z,7.25
2018-08-03T12:59:28.938Z,5.72
2018-08-03T13:02:26.991Z,4.70
2018-08-03T13:05:24.856Z,4.75
2018-08-03T13:08:22.929Z,4.83
2018-08-03T13:11:19.877Z,4.42
2018-08-03T13:14:17.510Z,5.20
2018-08-03T13:17:14.631Z,6.97
2018-08-03T13:20:11.967Z,4.45
2018-08-03T13:23:12.476Z,4.33
2018-08-03T13:26:10.073Z,4.58
2018-08-03T13:29:07.579Z,4.75
2018-08-03T13:32:04.816Z,4.65
2018-08-03T13:35:02.297Z,4.33
2018-08-03T13:38:00.218Z,4.92
2018-08-03T13:43:29.469Z,3.90
2018-08-03T13:46:27.364Z,4.10
2018-08-03T13:49:25.052Z,4.35
2018-08-03T13:52:22.979Z,4.30
2018-08-03T13:55:19.981Z,5.92
2018-08-03T13:58:18.031Z,3.80
2018-08-03T14:01:26.152Z,5.85
2018-08-03T14:04:24.124Z,4.47
2018-08-03T14:07:22.051Z,4.42
2018-08-03T14:10:21.105Z,4.25
2018-08-03T14:13:19.290Z,3.90
2018-08-03T14:16:17.343Z,4.15
2018-08-03T14:19:15.321Z,4.37
2018-08-03T14:22:13.450Z,4.20
2018-08-03T14:25:11.328Z,3.80
2018-08-03T14:28:08.823Z,4.45
2018-08-03T14:31:06.024Z,3.95
2018-08-03T14:34:03.972Z,3.70
2018-08-03T14:37:01.144Z,3.85
2018-08-03T14:39:59.390Z,4.62
2018-08-03T14:42:57.571Z,3.95
2018-08-03T14:45:55.040Z,4.28
2018-08-03T14:48:52.339Z,4.22
2018-08-03T14:51:50.206Z,4.08
2018-08-03T14:54:47.488Z,6.03
2018-08-03T14:57:45.256Z,4.20
2018-08-03T15:00:43.044Z,5.12
2018-08-03T15:03:40.951Z,4.72
2018-08-03T15:06:38.757Z,3.67
2018-08-03T15:09:36.704Z,4.35
2018-08-03T15:12:34.594Z,5.30
2018-08-03T15:15:32.522Z,3.95
2018-08-03T15:18:30.487Z,4.62
2018-08-03T15:21:28.679Z,4.22
2018-08-03T15:24:26.676Z,4.25
2018-08-03T15:27:24.956Z,4.83
2018-08-03T15:30:23.738Z,3.95
2018-08-03T15:33:21.171Z,5.80
2018-08-03T15:36:18.495Z,4.30
2018-08-03T15:39:17.364Z,4.92
2018-08-03T15:42:14.608Z,4.15
2018-08-03T15:45:11.759Z,5.40
2018-08-03T15:48:08.856Z,4.62
2018-08-03T15:51:06.657Z,6.47
2018-08-03T15:54:04.557Z,4.90
2018-08-03T15:57:01.908Z,3.90
2018-08-03T16:00:00.099Z,4.05
2018-08-03T16:02:57.479Z,4.20
2018-08-03T16:05:54.591Z,3.62
2018-08-03T16:08:52.560Z,4.10
2018-08-03T16:11:50.135Z,3.70
2018-08-03T16:14:47.988Z,3.87
2018-08-03T16:17:45.911Z,4.10
2018-08-03T16:20:43.233Z,5.20
2018-08-03T16:23:41.140Z,4.97
2018-08-03T16:26:38.804Z,4.47
2018-08-03T16:29:36.796Z,4.37
2018-08-03T16:32:34.716Z,4.28
2018-08-03T16:35:32.692Z,3.87
2018-08-03T16:38:30.700Z,4.72
2018-08-03T16:41:28.668Z,4.33
2018-08-03T16:44:26.341Z,3.42
2018-08-03T16:47:23.886Z,3.70
2018-08-03T16:50:21.048Z,7.12
2018-08-03T16:53:19.065Z,3.55
2018-08-03T16:56:16.391Z,3.90
2018-08-03T16:59:13.448Z,3.95
2018-08-03T17:02:11.530Z,3.67
2018-08-03T17:05:08.778Z,4.97
2018-08-03T17:08:06.212Z,3.90
2018-08-03T17:11:03.706Z,3.47
2018-08-03T17:14:01.129Z,4.40
2018-08-03T17:16:58.107Z,3.80
2018-08-03T17:19:56.109Z,3.83
2018-08-03T17:22:54.144Z,6.95
2018-08-03T17:25:52.139Z,4.10
2018-08-03T17:28:50.204Z,5.10
2018-08-03T17:31:48.281Z,4.67
2018-08-03T17:34:46.285Z,3.98
2018-08-03T17:37:44.262Z,6.22
2018-08-03T17:40:42.232Z,3.83
2018-08-03T17:43:40.191Z,6.75
2018-08-03T17:46:38.057Z,4.95
2018-08-03T17:49:35.951Z,4.10
2018-08-03T17:52:33.188Z,4.37
2018-08-03T17:55:30.247Z,4.50
2018-08-03T17:58:28.152Z,7.28
2018-08-03T18:01:25.588Z,7.30
2018-08-03T18:04:22.971Z,4.93
2018-08-03T18:07:20.190Z,4.47
2018-08-03T18:10:17.680Z,4.50
2018-08-03T18:13:15.141Z,5.03
2018-08-03T18:16:12.205Z,5.73
2018-08-03T18:19:09.746Z,8.30
2018-08-03T18:22:07.864Z,4.53
2018-08-03T18:25:05.416Z,4.78
2018-08-03T18:28:02.478Z,6.00
2018-08-03T18:30:59.558Z,5.87
2018-08-03T18:33:57.576Z,4.43
2018-08-03T18:36:55.552Z,4.93
2018-08-03T18:39:53.308Z,5.17
2018-08-03T18:42:51.144Z,5.00
2018-08-03T18:45:49.172Z,5.63
2018-08-03T18:48:47.014Z,4.90
2018-08-03T18:51:44.991Z,5.50
2018-08-03T18:54:42.834Z,5.50
2018-08-03T18:57:40.919Z,5.00
2018-08-03T19:00:38.847Z,9.53
2018-08-03T19:03:36.897Z,6.43
2018-08-03T19:06:33.963Z,6.87
2018-08-03T19:09:31.303Z,4.97
2018-08-03T19:12:28.600Z,5.17
2018-08-03T19:15:25.640Z,10.23
2018-08-03T19:18:23.771Z,7.33
2018-08-03T19:21:21.291Z,5.30
2018-08-03T19:24:18.506Z,5.43
2018-08-03T19:27:16.076Z,5.37
2018-08-03T19:30:13.244Z,5.00
2018-08-03T19:33:10.303Z,8.53
2018-08-03T19:36:07.756Z,7.40
2018-08-03T19:39:05.928Z,5.60
2018-08-03T19:42:03.033Z,6.40
2018-08-03T19:45:00.895Z,8.60
2018-08-03T19:47:58.956Z,5.90
2018-08-03T19:50:57.043Z,4.77
2018-08-03T19:53:54.773Z,7.67
2018-08-03T19:56:52.633Z,5.10
2018-08-03T19:59:50.467Z,4.53
2018-08-03T20:02:48.409Z,5.30
2018-08-03T20:05:45.472Z,7.73
2018-08-03T20:08:43.245Z,5.63
2018-08-03T20:11:41.291Z,3.90
2018-08-03T20:14:39.249Z,6.10
2018-08-03T20:17:36.480Z,5.03
2018-08-03T20:20:33.976Z,5.03
2018-08-03T20:23:31.640Z,5.43
2018-08-03T20:26:29.130Z,4.40
2018-08-03T20:29:27.296Z,5.57
2018-08-03T20:32:24.543Z,5.03
2018-08-03T20:35:22.054Z,4.47
2018-08-03T20:38:20.451Z,5.43
2018-08-03T20:41:18.136Z,5.73
2018-08-03T20:44:15.592Z,3.80
2018-08-03T20:47:12.923Z,6.17
2018-08-03T20:50:10.057Z,4.23
2018-08-03T20:53:08.052Z,4.53
2018-08-03T20:56:06.055Z,4.50
2018-08-03T20:59:03.964Z,4.47
2018-08-03T21:02:01.951Z,4.93
2018-08-03T21:04:59.801Z,6.27
2018-08-03T21:07:57.685Z,6.47
2018-08-03T21:10:55.615Z,4.80
2018-08-03T21:13:53.419Z,5.97
2018-08-03T21:16:51.299Z,3.60
2018-08-03T21:19:48.367Z,4.37
2018-08-03T21:22:46.405Z,4.80
2018-08-03T21:25:44.244Z,4.10
2018-08-03T21:28:42.065Z,4.80
2018-08-03T21:31:39.643Z,4.20
2018-08-03T21:34:37.623Z,3.83
2018-08-03T21:37:35.040Z,3.53
2018-08-03T21:40:32.463Z,4.57
2018-08-03T21:43:30.413Z,3.97
2018-08-03T21:46:27.875Z,3.63
2018-08-03T21:49:25.115Z,5.73
2018-08-03T21:52:22.494Z,5.43
2018-08-03T21:55:20.439Z,3.30
2018-08-03T21:58:17.831Z,4.40
2018-08-03T22:01:15.900Z,4.10
2018-08-03T22:04:14.083Z,3.47
2018-08-03T22:07:11.987Z,4.87
2018-08-03T22:10:09.963Z,3.67
2018-08-03T22:13:07.072Z,3.30
2018-08-03T22:16:04.859Z,4.50
2018-08-03T22:19:02.695Z,4.30
2018-08-03T22:22:00.509Z,4.20
2018-08-03T22:24:58.519Z,5.17
2018-08-03T22:27:56.519Z,3.23
2018-08-03T22:30:54.219Z,3.57
2018-08-03T22:33:52.135Z,3.97
2018-08-03T22:36:50.050Z,3.20
2018-08-03T22:39:47.531Z,3.97
2018-08-03T22:42:45.311Z,4.93
2018-08-03T22:45:43.175Z,3.83
2018-08-03T22:48:41.047Z,6.40
2018-08-03T22:51:38.861Z,5.07
2018-08-03T22:54:36.664Z,3.97
2018-08-03T22:57:34.309Z,3.47
2018-08-03T23:00:31.503Z,4.13
2018-08-03T23:03:29.140Z,3.90
2018-08-03T23:06:27.190Z,9.20
2018-08-03T23:09:25.149Z,4.13
2018-08-03T23:12:22.863Z,5.17
2018-08-03T23:15:20.858Z,4.03
2018-08-03T23:18:18.867Z,3.83
2018-08-03T23:21:16.043Z,5.07
2018-08-03T23:24:14.004Z,3.90
2018-08-03T23:27:11.167Z,4.60
2018-08-03T23:30:08.979Z,4.03
2018-08-03T23:33:06.936Z,5.83
2018-08-03T23:36:04.679Z,3.87
2018-08-03T23:39:02.283Z,4.57
2018-08-03T23:42:00.100Z,5.07
2018-08-03T23:44:57.836Z,6.13
2018-08-03T23:47:55.954Z,4.20
2018-08-03T23:50:53.567Z,5.00
2018-08-03T23:53:51.527Z,4.00
2018-08-03T23:56:49.536Z,4.37
2018-08-03T23:59:47.521Z,5.00
